createdAt,value
2017-12-29T07:31:23.185Z,-0.4
2017-12-29T07:32:30.097Z,-0.5
2017-12-29T07:33:37.287Z,-0.5
2017-12-29T07:34:44.207Z,-0.5
2017-12-29T07:35:51.344Z,-0.5
2017-12-29T07:36:58.512Z,-0.5
2017-12-29T07:38:05.718Z,-0.5
2017-12-29T07:39:12.909Z,-0.5
2017-12-29T07:40:19.841Z,-0.5
2017-12-29T07:41:27.027Z,-0.6
2017-12-29T07:42:33.941Z,-0.6
2017-12-29T07:43:40.858Z,-0.6
2017-12-29T07:44:48.088Z,-0.6
2017-12-29T07:45:55.293Z,-0.6
2017-12-29T07:47:02.476Z,-0.7
2017-12-29T07:48:09.660Z,-0.7
2017-12-29T07:49:16.845Z,-0.7
2017-12-29T07:50:23.784Z,-0.8
2017-12-29T07:51:30.968Z,-0.8
2017-12-29T07:52:38.162Z,-0.8
2017-12-29T07:53:45.346Z,-0.8
2017-12-29T07:54:52.537Z,-0.8
2017-12-29T07:55:59.737Z,-0.8
2017-12-29T07:57:06.924Z,-0.8
2017-12-29T07:58:13.838Z,-0.8
2017-12-29T07:59:21.025Z,-0.8
2017-12-29T08:00:28.216Z,-0.8
2017-12-29T08:01:35.412Z,-0.8
2017-12-29T08:02:42.332Z,-0.8
2017-12-29T08:03:49.516Z,-0.9
2017-12-29T08:04:56.430Z,-0.9
2017-12-29T08:06:03.623Z,-0.9
2017-12-29T08:07:10.823Z,-0.9
2017-12-29T08:08:18.058Z,-0.9
2017-12-29T08:09:25.234Z,-0.9
2017-12-29T08:10:32.427Z,-0.9
2017-12-29T08:11:39.613Z,-0.9
2017-12-29T08:12:46.813Z,-0.8
2017-12-29T08:13:54.012Z,-0.8
2017-12-29T08:15:01.201Z,-0.8
2017-12-29T08:16:08.391Z,-0.8
2017-12-29T08:17:15.593Z,-0.8
2017-12-29T08:18:22.793Z,-0.8
2017-12-29T08:19:29.984Z,-0.8
2017-12-29T08:20:37.196Z,-0.8
2017-12-29T08:21:44.384Z,-0.7
2017-12-29T08:22:51.578Z,-0.7
2017-12-29T08:23:58.524Z,-0.7
2017-12-29T08:25:05.441Z,-0.7
2017-12-29T08:26:12.628Z,-0.7
2017-12-29T08:27:19.815Z,-0.7
2017-12-29T08:28:27.001Z,-0.6
2017-12-29T08:29:34.188Z,-0.6
2017-12-29T08:30:41.137Z,-0.6
2017-12-29T08:31:48.052Z,-0.6
2017-12-29T08:32:55.247Z,-0.6
2017-12-29T08:34:02.441Z,-0.6
2017-12-29T08:35:09.659Z,-0.5
2017-12-29T08:36:16.855Z,-0.5
2017-12-29T08:37:24.048Z,-0.5
2017-12-29T08:38:31.238Z,-0.5
2017-12-29T08:39:38.422Z,-0.5
2017-12-29T08:40:45.622Z,-0.4
2017-12-29T08:41:52.280Z,-0.4
2017-12-29T08:42:59.468Z,-0.3
2017-12-29T08:44:06.657Z,-0.3
2017-12-29T08:45:13.845Z,-0.3
2017-12-29T08:46:21.039Z,-0.2
2017-12-29T08:47:27.948Z,-0.2
2017-12-29T08:48:35.147Z,-0.1
2017-12-29T08:49:42.341Z,-0.1
2017-12-29T08:50:49.265Z,-0.1
2017-12-29T08:51:56.452Z,-0.1
2017-12-29T08:53:03.649Z,-0.1
2017-12-29T08:54:10.849Z,-0.1
2017-12-29T08:55:18.039Z,-0.1
2017-12-29T08:56:24.955Z,0
2017-12-29T08:57:32.144Z,0
2017-12-29T08:58:39.063Z,0
2017-12-29T08:59:46.252Z,0
2017-12-29T09:00:53.441Z,0.1
2017-12-29T09:02:00.634Z,0.1
2017-12-29T09:03:07.556Z,0.1
2017-12-29T09:04:14.755Z,0.1
2017-12-29T09:05:21.940Z,0.2
2017-12-29T09:06:29.128Z,0.2
2017-12-29T09:07:35.768Z,0.3
2017-12-29T09:08:42.965Z,0.3
2017-12-29T09:09:50.154Z,0.3
2017-12-29T09:10:57.984Z,0.3
2017-12-29T09:12:05.173Z,0.3
2017-12-29T09:13:12.367Z,0.3
2017-12-29T09:14:19.275Z,0.3
2017-12-29T09:15:26.462Z,0.3
2017-12-29T09:16:33.652Z,0.2
2017-12-29T09:17:40.572Z,0.1
2017-12-29T09:18:47.487Z,0.1
2017-12-29T09:19:54.684Z,0.1
2017-12-29T09:21:01.873Z,0.1
2017-12-29T09:22:08.783Z,0.1
2017-12-29T09:23:15.975Z,0
2017-12-29T09:24:23.167Z,0
2017-12-29T09:25:30.354Z,0
2017-12-29T09:26:37.545Z,0.1
2017-12-29T09:27:44.728Z,0.1
2017-12-29T09:28:51.646Z,0.1
2017-12-29T09:29:58.559Z,0.2
2017-12-29T09:31:05.758Z,0.2
2017-12-29T09:32:12.943Z,0.3
2017-12-29T09:33:20.294Z,0.4
2017-12-29T09:34:27.483Z,0.4
2017-12-29T09:35:34.672Z,0.5
2017-12-29T09:36:41.859Z,0.5
2017-12-29T09:37:48.783Z,0.6
2017-12-29T09:38:56.658Z,0.6
2017-12-29T09:40:03.574Z,0.7
2017-12-29T09:41:10.765Z,0.7
2017-12-29T09:42:17.674Z,0.7
2017-12-29T09:43:24.586Z,0.7
2017-12-29T09:44:31.776Z,0.6
2017-12-29T09:45:38.960Z,0.6
2017-12-29T09:46:46.142Z,0.5
2017-12-29T09:47:53.332Z,0.5
2017-12-29T09:49:00.522Z,0.5
2017-12-29T09:50:07.746Z,0.4
2017-12-29T09:51:14.660Z,0.4
2017-12-29T09:52:21.851Z,0.4
2017-12-29T09:53:29.034Z,0.3
2017-12-29T09:54:36.221Z,0.4
2017-12-29T09:55:43.414Z,0.4
2017-12-29T09:56:50.599Z,0.4
2017-12-29T09:57:57.791Z,0.4
2017-12-29T09:59:04.985Z,0.5
2017-12-29T10:00:12.166Z,0.5
2017-12-29T10:01:19.078Z,0.5
2017-12-29T10:02:26.264Z,0.5
2017-12-29T10:03:33.451Z,0.5
2017-12-29T10:04:40.643Z,0.5
2017-12-29T10:05:47.831Z,0.7
2017-12-29T10:06:55.094Z,0.9
2017-12-29T10:08:02.291Z,1
2017-12-29T10:09:09.510Z,1.1
2017-12-29T10:10:16.704Z,1.3
2017-12-29T10:11:23.892Z,1.3
2017-12-29T10:12:31.081Z,1.4
2017-12-29T10:13:38.270Z,1.4
2017-12-29T10:14:45.464Z,1.3
2017-12-29T10:15:52.660Z,1.4
2017-12-29T10:16:59.848Z,1.3
2017-12-29T10:18:07.050Z,1.2
2017-12-29T10:19:14.392Z,1.1
2017-12-29T10:20:21.583Z,1.1
2017-12-29T10:21:28.772Z,1.1
2017-12-29T10:22:35.957Z,1.1
2017-12-29T10:23:42.878Z,1.1
2017-12-29T10:24:49.792Z,1.1
2017-12-29T10:25:56.982Z,1.1
2017-12-29T10:27:04.179Z,1.1
2017-12-29T10:28:11.371Z,1.1
2017-12-29T10:29:18.560Z,1.2
2017-12-29T10:30:25.756Z,1.2
2017-12-29T10:31:32.944Z,1.3
2017-12-29T10:32:40.133Z,1.3
2017-12-29T10:33:47.328Z,1.3
2017-12-29T10:34:54.518Z,1.4
2017-12-29T10:36:01.433Z,1.5
2017-12-29T10:37:08.622Z,1.5
2017-12-29T10:38:15.261Z,1.5
2017-12-29T10:39:22.173Z,1.6
2017-12-29T10:40:29.365Z,1.7
2017-12-29T10:41:36.554Z,1.8
2017-12-29T10:42:43.741Z,1.9
2017-12-29T10:43:50.936Z,2.1
2017-12-29T10:44:57.587Z,2.2
2017-12-29T10:46:04.505Z,2.4
2017-12-29T10:47:12.213Z,2.4
2017-12-29T10:48:19.404Z,2.5
2017-12-29T10:49:26.323Z,2.5
2017-12-29T10:50:33.248Z,2.5
2017-12-29T10:51:40.443Z,2.5
2017-12-29T10:52:47.079Z,2.6
2017-12-29T10:53:54.264Z,2.6
2017-12-29T10:55:01.190Z,2.5
2017-12-29T10:56:08.119Z,2.5
2017-12-29T10:57:15.308Z,2.6
2017-12-29T10:58:22.522Z,2.6
2017-12-29T10:59:29.713Z,2.6
2017-12-29T11:00:36.914Z,2.5
2017-12-29T11:01:44.364Z,2.5
2017-12-29T11:02:51.559Z,2.6
2017-12-29T11:03:58.476Z,2.7
2017-12-29T11:05:05.669Z,2.7
2017-12-29T11:06:12.860Z,2.6
2017-12-29T11:07:19.762Z,2.5
2017-12-29T11:08:26.678Z,2.5
2017-12-29T11:09:33.870Z,2.4
2017-12-29T11:10:41.063Z,2.3
2017-12-29T11:11:48.248Z,2.2
2017-12-29T11:12:55.167Z,2.1
2017-12-29T11:14:02.360Z,2.1
2017-12-29T11:15:09.555Z,1.9
2017-12-29T11:16:16.740Z,1.9
2017-12-29T11:17:23.938Z,1.9
2017-12-29T11:18:31.131Z,2
2017-12-29T11:19:38.318Z,2.2
2017-12-29T11:20:45.511Z,2.3
2017-12-29T11:21:52.696Z,2.3
2017-12-29T11:22:59.899Z,2.3
2017-12-29T11:24:07.094Z,2.3
2017-12-29T11:25:14.297Z,2.4
2017-12-29T11:26:21.490Z,2.4
2017-12-29T11:27:28.440Z,2.3
2017-12-29T11:28:35.634Z,2.3
2017-12-29T11:29:42.828Z,2.3
2017-12-29T11:30:50.014Z,2.3
2017-12-29T11:31:57.331Z,2.4
2017-12-29T11:33:04.566Z,2.3
2017-12-29T11:34:11.483Z,2.4
2017-12-29T11:35:18.398Z,2.5
2017-12-29T11:36:25.587Z,2.8
2017-12-29T11:37:32.776Z,3
2017-12-29T11:38:39.969Z,3
2017-12-29T11:39:46.886Z,2.9
2017-12-29T11:40:54.284Z,2.8
2017-12-29T11:42:01.477Z,2.9
2017-12-29T11:43:08.678Z,3.1
2017-12-29T11:44:15.587Z,3.4
2017-12-29T11:45:22.794Z,3.4
2017-12-29T11:46:29.994Z,3.4
2017-12-29T11:47:37.188Z,3.4
2017-12-29T11:48:44.398Z,3.4
2017-12-29T11:49:51.574Z,3.4
2017-12-29T11:50:58.766Z,3.4
2017-12-29T11:52:05.956Z,3.4
2017-12-29T11:53:13.149Z,3.3
2017-12-29T11:54:20.060Z,3.2
2017-12-29T11:55:27.271Z,2.9
2017-12-29T11:56:34.461Z,2.8
2017-12-29T11:57:41.110Z,2.7
2017-12-29T11:58:48.020Z,2.7
2017-12-29T11:59:55.207Z,2.6
2017-12-29T12:01:02.414Z,2.7
2017-12-29T12:02:09.600Z,2.7
2017-12-29T12:03:16.790Z,2.8
2017-12-29T12:04:23.980Z,2.7
2017-12-29T12:05:31.168Z,2.8
2017-12-29T12:06:38.361Z,3
2017-12-29T12:07:45.283Z,3.1
2017-12-29T12:08:52.630Z,3.1
2017-12-29T12:09:59.826Z,3.1
2017-12-29T12:11:07.015Z,3.2
2017-12-29T12:12:13.931Z,3.1
2017-12-29T12:13:21.128Z,3.1
2017-12-29T12:14:28.314Z,3.3
2017-12-29T12:15:35.507Z,3.3
2017-12-29T12:16:42.694Z,3.3
2017-12-29T12:17:49.892Z,3.4
2017-12-29T12:18:57.080Z,3.4
2017-12-29T12:20:04.272Z,3.4
2017-12-29T12:21:11.466Z,3.2
2017-12-29T12:22:18.108Z,3
2017-12-29T12:23:25.302Z,2.9
2017-12-29T12:24:32.494Z,2.8
2017-12-29T12:25:39.686Z,2.8
2017-12-29T12:26:46.911Z,2.8
2017-12-29T12:27:54.104Z,2.8
2017-12-29T12:29:01.295Z,2.8
2017-12-29T12:30:08.214Z,2.9
2017-12-29T12:31:15.426Z,3
2017-12-29T12:32:22.619Z,3.2
2017-12-29T12:33:29.808Z,3.3
2017-12-29T12:34:36.997Z,3.3
2017-12-29T12:35:44.197Z,3.2
2017-12-29T12:36:51.109Z,3
2017-12-29T12:37:58.297Z,3
2017-12-29T12:39:05.493Z,2.9
2017-12-29T12:40:12.684Z,2.8
2017-12-29T12:41:19.887Z,2.7
2017-12-29T12:42:27.114Z,2.7
2017-12-29T12:43:34.306Z,2.7
2017-12-29T12:44:41.231Z,2.7
2017-12-29T12:45:48.425Z,2.7
2017-12-29T12:46:55.623Z,2.7
2017-12-29T12:48:02.542Z,2.6
2017-12-29T12:49:09.983Z,2.6
2017-12-29T12:50:17.374Z,2.6
2017-12-29T12:51:24.565Z,2.5
2017-12-29T12:52:31.484Z,2.5
2017-12-29T12:53:38.669Z,2.5
2017-12-29T12:54:45.862Z,2.5
2017-12-29T12:55:53.054Z,2.5
2017-12-29T12:57:00.245Z,2.6
2017-12-29T12:58:07.440Z,2.6
2017-12-29T12:59:14.985Z,2.7
2017-12-29T13:00:22.214Z,2.8
2017-12-29T13:01:29.406Z,2.8
2017-12-29T13:02:36.603Z,2.8
2017-12-29T13:03:43.793Z,2.8
2017-12-29T13:04:50.982Z,2.7
2017-12-29T13:05:58.199Z,2.7
2017-12-29T13:07:05.117Z,2.7
2017-12-29T13:08:12.307Z,2.7
2017-12-29T13:09:19.497Z,2.8
2017-12-29T13:10:26.698Z,2.7
2017-12-29T13:11:33.952Z,2.7
2017-12-29T13:12:41.158Z,2.6
2017-12-29T13:13:48.356Z,2.7
2017-12-29T13:14:55.554Z,2.6
2017-12-29T13:16:02.762Z,2.6
2017-12-29T13:17:10.151Z,2.6
2017-12-29T13:18:17.383Z,2.6
2017-12-29T13:19:24.589Z,2.6
2017-12-29T13:20:31.786Z,2.7
2017-12-29T13:21:38.975Z,2.7
2017-12-29T13:22:45.917Z,2.6
2017-12-29T13:23:52.842Z,2.5
2017-12-29T13:25:00.040Z,2.5
2017-12-29T13:26:06.950Z,2.5
2017-12-29T13:27:14.152Z,2.4
2017-12-29T13:28:21.543Z,2.4
2017-12-29T13:29:28.733Z,2.4
2017-12-29T13:30:35.924Z,2.3
2017-12-29T13:31:43.270Z,2.3
2017-12-29T13:32:50.485Z,2.3
2017-12-29T13:33:57.680Z,2.3
2017-12-29T13:35:04.868Z,2.3
2017-12-29T13:36:12.059Z,2.4
2017-12-29T13:37:19.248Z,2.3
2017-12-29T13:38:26.443Z,2.3
2017-12-29T13:39:33.636Z,2.2
2017-12-29T13:40:40.826Z,2.2
2017-12-29T13:41:48.020Z,2.1
2017-12-29T13:42:55.213Z,2.2
2017-12-29T13:44:02.410Z,2.2
2017-12-29T13:45:09.605Z,2.2
2017-12-29T13:46:16.529Z,2.2
2017-12-29T13:47:23.721Z,2.2
2017-12-29T13:48:30.666Z,2.2
2017-12-29T13:49:37.857Z,2.2
2017-12-29T13:50:45.057Z,2.2
2017-12-29T13:51:52.516Z,2.1
2017-12-29T13:53:00.664Z,2.1
2017-12-29T13:54:07.877Z,2.1
2017-12-29T13:55:15.072Z,2.1
2017-12-29T13:56:22.272Z,2.1
2017-12-29T13:57:29.468Z,2.1
2017-12-29T13:58:36.652Z,2.1
2017-12-29T13:59:43.843Z,2.1
2017-12-29T14:00:51.031Z,2.1
2017-12-29T14:01:58.221Z,2.1
2017-12-29T14:03:05.412Z,2.1
2017-12-29T14:04:12.601Z,2
2017-12-29T14:05:19.793Z,2.1
2017-12-29T14:06:26.981Z,2.1
2017-12-29T14:07:34.170Z,2
2017-12-29T14:08:41.092Z,2
2017-12-29T14:09:48.276Z,2
2017-12-29T14:10:55.463Z,2
2017-12-29T14:12:02.654Z,2
2017-12-29T14:13:09.874Z,2
2017-12-29T14:14:16.514Z,1.9
2017-12-29T14:15:23.436Z,1.9
2017-12-29T14:16:30.625Z,1.9
2017-12-29T14:17:37.823Z,1.9
2017-12-29T14:18:44.742Z,1.9
2017-12-29T14:19:51.985Z,1.8
2017-12-29T14:20:59.199Z,1.8
2017-12-29T14:22:06.409Z,1.8
2017-12-29T14:23:13.609Z,1.7
2017-12-29T14:24:20.794Z,1.7
2017-12-29T14:25:27.985Z,1.7
2017-12-29T14:26:35.185Z,1.8
2017-12-29T14:27:42.379Z,1.7
2017-12-29T14:28:49.577Z,1.7
2017-12-29T14:29:56.481Z,1.7
2017-12-29T14:31:03.672Z,1.6
2017-12-29T14:32:10.588Z,1.7
2017-12-29T14:33:17.781Z,1.6
2017-12-29T14:34:24.972Z,1.6
2017-12-29T14:36:39.076Z,1.6
2017-12-29T14:37:46.272Z,1.5
2017-12-29T14:38:53.468Z,1.5
2017-12-29T14:40:00.392Z,1.5
2017-12-29T14:41:07.608Z,1.5
2017-12-29T14:42:14.800Z,1.5
2017-12-29T14:43:21.731Z,1.5
2017-12-29T14:44:28.636Z,1.5
2017-12-29T14:45:35.823Z,1.5
2017-12-29T14:46:43.019Z,1.4
2017-12-29T14:47:50.244Z,1.4
2017-12-29T14:48:56.897Z,1.4
2017-12-29T14:50:04.110Z,1.4
2017-12-29T14:51:11.286Z,1.4
2017-12-29T14:52:18.476Z,1.3
2017-12-29T14:53:25.673Z,1.3
2017-12-29T14:54:32.862Z,1.3
2017-12-29T14:55:40.051Z,1.3
2017-12-29T14:56:47.241Z,1.3
2017-12-29T14:57:54.163Z,1.2
2017-12-29T14:59:01.352Z,1.2
2017-12-29T15:00:08.270Z,1.2
2017-12-29T15:01:15.468Z,1.2
2017-12-29T15:02:22.673Z,1.1
2017-12-29T15:03:29.862Z,1.2
2017-12-29T15:04:36.778Z,1.1
2017-12-29T15:05:43.971Z,1.1
2017-12-29T15:06:51.173Z,1.1
2017-12-29T15:07:58.088Z,1.1
2017-12-29T15:09:05.985Z,1.1
2017-12-29T15:10:13.177Z,1.1
2017-12-29T15:11:20.410Z,1.1
2017-12-29T15:12:27.330Z,1
2017-12-29T15:13:34.519Z,1
2017-12-29T15:14:41.432Z,1.1
2017-12-29T15:15:48.622Z,1
2017-12-29T15:16:55.815Z,1.1
2017-12-29T15:18:03.017Z,1.1
2017-12-29T15:19:10.210Z,1
2017-12-29T15:20:17.395Z,1.1
2017-12-29T15:21:24.586Z,1.1
2017-12-29T15:22:31.778Z,1
2017-12-29T15:23:38.695Z,1
2017-12-29T15:24:45.883Z,1
2017-12-29T15:25:53.075Z,1
2017-12-29T15:27:00.267Z,1
2017-12-29T15:28:07.477Z,0.9
2017-12-29T15:29:14.667Z,0.9
2017-12-29T15:30:21.860Z,0.9
2017-12-29T15:31:29.059Z,0.9
2017-12-29T15:32:36.252Z,0.9
2017-12-29T15:33:43.448Z,0.9
2017-12-29T15:34:50.635Z,0.9
2017-12-29T15:35:57.850Z,0.8
2017-12-29T15:37:05.047Z,0.8
2017-12-29T15:38:12.262Z,0.8
2017-12-29T15:39:19.456Z,0.8
2017-12-29T15:40:26.374Z,0.8
2017-12-29T15:41:33.567Z,0.8
2017-12-29T15:42:40.799Z,0.8
2017-12-29T15:43:47.989Z,0.8
2017-12-29T15:44:55.178Z,0.8
2017-12-29T15:46:02.574Z,0.8
2017-12-29T15:47:09.982Z,0.8
2017-12-29T15:48:17.172Z,0.8
2017-12-29T15:49:24.320Z,0.8
2017-12-29T15:50:31.234Z,0.8
2017-12-29T15:51:38.449Z,0.8
2017-12-29T15:52:45.642Z,0.8
2017-12-29T15:54:07.480Z,0.8
2017-12-29T15:55:14.670Z,0.7
2017-12-29T15:56:21.864Z,0.8
2017-12-29T15:57:29.049Z,0.7
2017-12-29T15:58:36.252Z,0.8
2017-12-29T15:59:43.438Z,0.8
2017-12-29T16:00:50.635Z,0.7
2017-12-29T16:01:57.827Z,0.8
2017-12-29T16:03:05.042Z,0.7
2017-12-29T16:04:12.236Z,0.7
2017-12-29T16:05:19.450Z,0.7
2017-12-29T16:06:26.633Z,0.7
2017-12-29T16:07:33.822Z,0.7
2017-12-29T16:08:41.010Z,0.7
2017-12-29T16:09:48.205Z,0.7
2017-12-29T16:10:55.398Z,0.7
2017-12-29T16:12:02.319Z,0.7
2017-12-29T16:13:09.513Z,0.7
2017-12-29T16:14:16.715Z,0.7
